Time;durP1;ratioP1;P1;durP2;ratioP2;P2;SDS_P1;SDS_P2;PMS_P1;PMS_P2;Temp;Humidity;BMP_temperature;BMP_pressure;BME280_temperature;BME280_humidity;BME280_pressure;Samples;Min_cycle;Max_cycle;Signal;HPM_P1;HPM_P2
2021/01/12 00:02:19;;;;;;;23.88;13.10;;;-1.70;89.80;;;;;;5082418;28;20095;-72
2021/01/12 00:04:46;;;;;;;23.98;13.60;;;-1.60;89.80;;;;;;5080436;28;20086;-74
2021/01/12 00:07:12;;;;;;;23.05;12.90;;;-1.60;88.70;;;;;;5080685;28;20102;-72
2021/01/12 00:09:38;;;;;;;23.58;13.02;;;-1.60;88.50;;;;;;5083494;28;20056;-73
2021/01/12 00:12:05;;;;;;;27.63;12.32;;;-1.50;88.30;;;;;;5079764;28;20111;-75
2021/01/12 00:14:31;;;;;;;24.77;12.13;;;-1.50;87.80;;;;;;5081193;28;20089;-72
2021/01/12 00:17:01;;;;;;;22.17;12.90;;;-1.50;87.10;;;;;;5064980;28;20028;-73
2021/01/12 00:19:27;;;;;;;25.02;13.30;;;-1.40;87.40;;;;;;5064505;28;20461;-73
2021/01/12 00:21:54;;;;;;;21.80;13.27;;;-1.50;87.20;;;;;;5091204;28;20035;-69
2021/01/12 00:24:19;;;;;;;26.73;14.95;;;-1.50;87.30;;;;;;5091406;28;20043;-72
2021/01/12 00:26:46;;;;;;;25.02;14.23;;;-1.50;87.20;;;;;;5075453;28;20513;-73
2021/01/12 00:29:12;;;;;;;23.27;12.43;;;-1.60;87.80;;;;;;5074346;28;20025;-73
2021/01/12 00:31:39;;;;;;;25.30;14.00;;;-1.60;88.00;;;;;;5090733;28;20028;-72
2021/01/12 00:34:05;;;;;;;22.95;14.25;;;-1.60;88.40;;;;;;5094026;28;20039;-71
2021/01/12 00:36:31;;;;;;;27.65;14.68;;;-1.60;87.60;;;;;;5094951;28;20020;-73
2021/01/12 00:38:57;;;;;;;27.20;14.52;;;-1.60;87.90;;;;;;5094017;28;20052;-72
2021/01/12 00:41:24;;;;;;;26.20;14.13;;;-1.60;88.20;;;;;;5089492;28;20074;-74
2021/01/12 00:43:49;;;;;;;26.83;14.23;;;-1.60;88.30;;;;;;5094263;28;20036;-71
2021/01/12 00:46:15;;;;;;;27.33;14.32;;;-1.60;89.10;;;;;;5093890;28;20034;-75
2021/01/12 00:48:40;;;;;;;25.27;13.43;;;-1.70;88.90;;;;;;5094265;28;20024;-72
2021/01/12 00:51:06;;;;;;;26.83;14.35;;;-1.70;88.30;;;;;;5093356;28;20056;-77
2021/01/12 00:53:31;;;;;;;27.63;14.45;;;-1.70;88.40;;;;;;5094023;28;20760;-71
2021/01/12 00:55:57;;;;;;;25.40;13.95;;;-1.70;88.90;;;;;;5092806;28;20020;-70
2021/01/12 00:58:23;;;;;;;32.60;14.40;;;-1.70;88.20;;;;;;5094374;28;20028;-69
2021/01/12 01:00:48;;;;;;;24.15;13.50;;;-1.70;87.60;;;;;;5094886;28;20035;-73
2021/01/12 01:03:14;;;;;;;28.75;13.57;;;-1.70;87.20;;;;;;5093854;28;20028;-73
2021/01/12 01:05:40;;;;;;;29.52;15.30;;;-1.60;87.30;;;;;;5076100;28;20537;-71
2021/01/12 01:08:06;;;;;;;24.25;13.32;;;-1.60;86.90;;;;;;5089095;28;20056;-71
2021/01/12 01:10:31;;;;;;;25.67;13.57;;;-1.60;87.00;;;;;;5076962;28;20028;-71
2021/01/12 01:12:57;;;;;;;26.52;13.70;;;-1.50;86.90;;;;;;5093908;28;20036;-70
2021/01/12 01:15:22;;;;;;;29.00;13.98;;;-1.50;87.40;;;;;;5075484;28;20028;-73
2021/01/12 01:17:48;;;;;;;22.17;13.50;;;-1.50;87.70;;;;;;5093245;28;20461;-74
2021/01/12 01:20:14;;;;;;;27.92;14.18;;;-1.50;88.20;;;;;;5091450;28;20035;-72
2021/01/12 01:22:39;;;;;;;23.23;12.85;;;-1.50;88.00;;;;;;5093501;28;20024;-74
2021/01/12 01:25:06;;;;;;;26.98;13.27;;;-1.50;87.80;;;;;;5092244;28;20036;-72
2021/01/12 01:27:35;;;;;;;23.67;13.35;;;-1.40;87.80;;;;;;5093982;28;20035;-77
2021/01/12 01:30:00;;;;;;;33.35;12.57;;;-1.40;87.50;;;;;;5092512;28;20492;-72
2021/01/12 01:32:26;;;;;;;30.13;13.07;;;-1.30;87.10;;;;;;5093297;28;20028;-72
2021/01/12 01:34:52;;;;;;;22.08;12.88;;;-1.30;87.20;;;;;;5093738;28;20468;-73
2021/01/12 01:37:17;;;;;;;23.73;12.25;;;-1.20;86.70;;;;;;5093026;28;20031;-73
2021/01/12 01:39:43;;;;;;;21.70;12.10;;;-1.20;87.10;;;;;;5089135;28;20064;-72
2021/01/12 01:42:09;;;;;;;20.52;11.80;;;-1.20;87.60;;;;;;5092502;28;20111;-73
2021/01/12 01:44:35;;;;;;;18.15;11.45;;;-1.20;87.40;;;;;;5094721;28;20038;-74
2021/01/12 01:47:00;;;;;;;22.42;12.55;;;-1.10;87.60;;;;;;5093391;28;20038;-73
2021/01/12 01:49:28;;;;;;;22.27;12.20;;;-1.10;87.60;;;;;;5095865;28;20016;-74
2021/01/12 01:51:53;;;;;;;21.38;11.60;;;-1.00;87.30;;;;;;5073867;28;20020;-73
2021/01/12 01:54:19;;;;;;;22.70;11.18;;;-1.00;86.50;;;;;;5072527;28;20024;-72
2021/01/12 01:56:45;;;;;;;16.95;9.73;;;-0.90;86.60;;;;;;5086948;28;20069;-73
2021/01/12 01:59:10;;;;;;;21.90;11.18;;;-0.90;86.10;;;;;;5093042;28;20369;-73
2021/01/12 02:01:36;;;;;;;20.90;11.45;;;-0.80;86.10;;;;;;5082965;28;20521;-74
2021/01/12 02:04:23;;;;;;;19.90;10.88;;;-0.80;86.40;;;;;;5072207;28;20072;-74
2021/01/12 02:06:51;;;;;;;18.25;10.35;;;-0.80;86.40;;;;;;5087012;28;20055;-72
2021/01/12 02:09:21;;;;;;;22.25;11.93;;;-0.90;86.80;;;;;;5078258;28;20020;-73
2021/01/12 02:11:56;;;;;;;20.02;10.95;;;-0.90;86.90;;;;;;5078936;28;20158;-72
2021/01/12 02:14:25;;;;;;;18.42;10.10;;;-0.90;87.10;;;;;;5092662;28;20115;-74
2021/01/12 02:16:54;;;;;;;21.50;10.00;;;-0.90;87.50;;;;;;5100691;28;20016;-78
2021/01/12 02:19:22;;;;;;;16.40;9.43;;;-0.90;87.80;;;;;;5095589;28;20403;-73
2021/01/12 02:21:51;;;;;;;16.25;9.35;;;-0.80;87.30;;;;;;5092730;28;20027;-74
2021/01/12 02:24:17;;;;;;;20.23;10.55;;;-0.70;87.10;;;;;;5092077;28;20529;-74
2021/01/12 02:26:43;;;;;;;24.33;10.75;;;-0.80;87.50;;;;;;5074474;28;20116;-73
2021/01/12 02:29:09;;;;;;;19.77;10.30;;;-0.80;87.50;;;;;;5091675;28;20028;-73
2021/01/12 02:31:34;;;;;;;17.17;10.25;;;-0.70;87.60;;;;;;5092533;28;20028;-74
2021/01/12 02:34:11;;;;;;;17.73;9.43;;;-0.70;87.30;;;;;;5091449;28;20040;-72
2021/01/12 02:36:37;;;;;;;19.45;10.50;;;-0.60;87.20;;;;;;5092511;28;20020;-72
2021/01/12 02:39:04;;;;;;;18.33;9.52;;;-0.60;87.60;;;;;;5080362;28;20028;-73
2021/01/12 02:41:32;;;;;;;19.42;9.48;;;-0.60;86.90;;;;;;5071784;28;20038;-74
2021/01/12 02:43:59;;;;;;;16.75;8.98;;;-0.60;87.10;;;;;;5082907;28;20040;-67
2021/01/12 02:46:25;;;;;;;19.27;9.00;;;-0.50;87.50;;;;;;5087374;28;20052;-73
2021/01/12 02:48:51;;;;;;;14.00;8.48;;;-0.60;87.60;;;;;;5074736;28;20051;-72
2021/01/12 02:51:17;;;;;;;17.55;9.45;;;-0.60;87.70;;;;;;5091246;28;20039;-73
2021/01/12 02:53:43;;;;;;;15.55;7.82;;;-0.50;87.60;;;;;;5092046;28;20024;-71
2021/01/12 02:56:09;;;;;;;15.80;8.45;;;-0.50;87.60;;;;;;5090772;28;20028;-72
2021/01/12 02:58:34;;;;;;;14.57;8.45;;;-0.60;88.00;;;;;;5091439;28;20031;-73
2021/01/12 03:01:00;;;;;;;16.58;8.30;;;-0.50;87.80;;;;;;5090899;28;20020;-69
2021/01/12 03:03:26;;;;;;;15.95;9.82;;;-0.50;87.90;;;;;;5091840;28;20074;-71
2021/01/12 03:05:52;;;;;;;13.93;8.27;;;-0.50;87.80;;;;;;5073459;28;20477;-76
2021/01/12 03:08:18;;;;;;;12.63;7.38;;;-0.50;87.60;;;;;;5083153;28;20110;-68
2021/01/12 03:10:44;;;;;;;15.73;8.20;;;-0.50;87.50;;;;;;5082872;28;20032;-74
2021/01/12 03:13:10;;;;;;;12.55;7.15;;;-0.40;86.90;;;;;;5105588;28;20480;-73
2021/01/12 03:15:39;;;;;;;12.38;7.35;;;-0.30;86.10;;;;;;5112096;28;20054;-73
2021/01/12 03:18:06;;;;;;;14.20;8.50;;;-0.30;86.50;;;;;;5098858;28;20028;-73
2021/01/12 03:20:32;;;;;;;14.18;8.05;;;-0.30;86.20;;;;;;5091485;28;20480;-74
2021/01/12 03:22:57;;;;;;;17.83;7.40;;;-0.30;86.00;;;;;;5091265;28;20024;-69
2021/01/12 03:25:23;;;;;;;13.80;6.95;;;-0.30;85.70;;;;;;5091885;28;20093;-69
2021/01/12 03:27:49;;;;;;;13.38;7.30;;;-0.20;85.80;;;;;;5091697;28;20567;-70
2021/01/12 03:30:16;;;;;;;12.43;7.60;;;-0.30;85.80;;;;;;5090502;28;20543;-72
2021/01/12 03:32:42;;;;;;;14.30;7.93;;;-0.20;85.60;;;;;;5073238;28;20035;-70
2021/01/12 03:35:12;;;;;;;14.45;7.82;;;-0.20;86.00;;;;;;5091044;28;20028;-73
2021/01/12 03:37:38;;;;;;;11.70;7.18;;;-0.30;86.20;;;;;;5091316;28;20430;-70
2021/01/12 03:40:05;;;;;;;11.60;6.43;;;-0.20;86.40;;;;;;5071497;28;20045;-73
2021/01/12 03:42:31;;;;;;;12.90;6.78;;;-0.20;87.00;;;;;;5077558;28;20028;-74
2021/01/12 03:44:57;;;;;;;12.57;7.53;;;-0.10;86.80;;;;;;5091244;28;20051;-71
2021/01/12 03:47:22;;;;;;;13.52;7.35;;;-0.10;87.20;;;;;;5072088;28;20028;-74
2021/01/12 03:49:48;;;;;;;13.38;7.03;;;-0.10;87.50;;;;;;5091537;28;20032;-74
2021/01/12 03:52:14;;;;;;;11.13;6.20;;;-0.10;87.20;;;;;;5090603;28;20469;-71
2021/01/12 03:54:39;;;;;;;11.98;6.40;;;-0.10;87.60;;;;;;5091429;28;20047;-71
2021/01/12 03:57:05;;;;;;;11.60;6.53;;;-0.10;88.60;;;;;;5093816;28;20024;-70
2021/01/12 03:59:31;;;;;;;12.07;6.65;;;0.00;89.10;;;;;;5093137;28;20055;-73
2021/01/12 04:01:56;;;;;;;12.20;6.57;;;0.00;89.70;;;;;;5099135;28;20048;-71
2021/01/12 04:04:22;;;;;;;13.80;6.68;;;0.00;90.20;;;;;;5099228;28;20028;-75
2021/01/12 04:06:48;;;;;;;12.20;7.25;;;0.00;90.20;;;;;;5095868;28;20043;-73
2021/01/12 04:09:14;;;;;;;9.73;5.53;;;0.10;90.10;;;;;;5094160;28;20080;-72
2021/01/12 04:11:39;;;;;;;12.55;6.07;;;0.10;90.20;;;;;;5098371;28;20119;-71
2021/01/12 04:14:06;;;;;;;9.70;5.63;;;0.10;90.00;;;;;;5076855;28;20047;-77
2021/01/12 04:16:32;;;;;;;13.23;6.68;;;0.10;89.40;;;;;;5073629;28;20161;-77
2021/01/12 04:18:58;;;;;;;11.02;6.38;;;0.10;89.70;;;;;;5094354;28;20024;-72
2021/01/12 04:21:24;;;;;;;9.68;6.13;;;0.20;89.40;;;;;;5076352;28;20024;-71
2021/01/12 04:23:50;;;;;;;16.38;6.38;;;0.20;89.70;;;;;;5095234;28;20024;-73
2021/01/12 04:26:16;;;;;;;12.75;6.45;;;0.20;90.00;;;;;;5096133;28;20024;-76
2021/01/12 04:28:41;;;;;;;10.70;6.22;;;0.30;90.10;;;;;;5092463;28;20025;-77
2021/01/12 04:31:07;;;;;;;10.73;6.40;;;0.30;90.20;;;;;;5073333;28;20105;-70
2021/01/12 04:33:33;;;;;;;10.15;6.25;;;0.20;90.60;;;;;;5106347;28;20431;-70
2021/01/12 04:35:59;;;;;;;10.23;6.25;;;0.30;90.60;;;;;;5115253;28;20252;-69
2021/01/12 04:38:24;;;;;;;12.48;7.05;;;0.30;90.30;;;;;;5099602;28;20032;-70
2021/01/12 04:40:50;;;;;;;10.50;6.80;;;0.30;90.30;;;;;;5094772;28;20024;-71
2021/01/12 04:43:16;;;;;;;13.55;6.72;;;0.40;90.00;;;;;;5075288;28;20184;-72
2021/01/12 04:45:42;;;;;;;11.10;6.22;;;0.40;89.80;;;;;;5094392;28;20139;-69
2021/01/12 04:48:08;;;;;;;10.82;6.38;;;0.40;89.80;;;;;;5101076;28;20443;-71
2021/01/12 04:50:34;;;;;;;12.43;6.65;;;0.40;89.20;;;;;;5093803;28;20027;-71
2021/01/12 04:52:59;;;;;;;10.82;6.45;;;0.40;89.70;;;;;;5094192;28;20036;-69
2021/01/12 04:55:25;;;;;;;12.93;6.95;;;0.30;89.80;;;;;;5076903;28;20032;-70
2021/01/12 04:57:52;;;;;;;10.40;6.53;;;0.30;90.00;;;;;;5094531;28;20020;-76
2021/01/12 05:00:29;;;;;;;12.82;7.00;;;0.40;89.80;;;;;;5093490;28;20115;-71
2021/01/12 05:03:01;;;;;;;13.35;6.85;;;0.40;90.10;;;;;;5094159;28;20020;-70
2021/01/12 05:05:31;;;;;;;11.77;6.95;;;0.40;89.80;;;;;;5055773;28;20040;-76
2021/01/12 05:08:02;;;;;;;11.80;6.97;;;0.30;90.10;;;;;;5084411;28;20536;-70
2021/01/12 05:10:30;;;;;;;13.13;6.53;;;0.30;90.30;;;;;;5093285;28;20111;-77
2021/01/12 05:12:58;;;;;;;10.32;5.97;;;0.40;90.50;;;;;;5098846;28;20051;-73
2021/01/12 05:15:27;;;;;;;12.35;7.18;;;0.30;90.90;;;;;;5089630;28;20088;-71
2021/01/12 05:17:55;;;;;;;11.43;6.35;;;0.40;91.10;;;;;;5101046;28;20039;-74
2021/01/12 05:20:27;;;;;;;12.10;7.38;;;0.40;91.00;;;;;;5083826;28;20089;-72
2021/01/12 05:23:09;;;;;;;15.68;7.78;;;0.40;90.90;;;;;;5093428;28;20031;-72
2021/01/12 05:25:41;;;;;;;16.20;8.15;;;0.40;91.40;;;;;;5073999;28;20055;-75
2021/01/12 05:28:12;;;;;;;13.52;7.60;;;0.40;91.10;;;;;;5084503;28;20028;-72
2021/01/12 05:30:38;;;;;;;11.07;6.88;;;0.40;91.20;;;;;;5093927;28;20077;-72
2021/01/12 05:33:04;;;;;;;13.20;7.60;;;0.40;91.10;;;;;;5092794;28;20028;-68
2021/01/12 05:35:32;;;;;;;12.65;7.72;;;0.30;91.60;;;;;;5093812;28;20387;-73
2021/01/12 05:38:09;;;;;;;13.98;7.78;;;0.30;91.90;;;;;;5089379;28;20457;-71
2021/01/12 05:40:41;;;;;;;14.07;7.88;;;0.30;92.20;;;;;;5089792;28;20024;-76
2021/01/12 05:43:14;;;;;;;12.90;7.80;;;0.30;92.50;;;;;;5092160;28;20059;-69
2021/01/12 05:45:41;;;;;;;13.45;7.55;;;0.30;92.90;;;;;;5093733;28;20040;-75
2021/01/12 05:48:09;;;;;;;10.88;7.30;;;0.40;93.10;;;;;;5073692;28;20066;-73
2021/01/12 05:50:35;;;;;;;11.68;7.43;;;0.40;93.20;;;;;;5091691;28;20032;-75
2021/01/12 05:53:06;;;;;;;14.07;6.88;;;0.40;93.30;;;;;;5093932;28;20073;-70
2021/01/12 05:55:40;;;;;;;11.43;7.38;;;0.40;93.80;;;;;;5093711;28;20418;-76
2021/01/12 05:58:29;;;;;;;12.68;7.38;;;0.40;93.80;;;;;;5092436;28;20533;-71
2021/01/12 06:01:00;;;;;;;13.50;7.22;;;0.40;94.10;;;;;;5093308;28;20016;-77
2021/01/12 06:03:29;;;;;;;11.02;6.72;;;0.40;94.30;;;;;;5073717;28;20043;-72
2021/01/12 06:05:55;;;;;;;11.80;6.47;;;0.50;94.50;;;;;;5093071;28;20377;-71
2021/01/12 06:08:21;;;;;;;14.30;8.15;;;0.50;94.90;;;;;;5065739;28;20148;-69
2021/01/12 06:10:47;;;;;;;9.75;6.18;;;0.50;94.80;;;;;;5080732;28;20024;-70
2021/01/12 06:13:17;;;;;;;10.88;5.75;;;0.60;95.00;;;;;;5085010;28;20060;-72
2021/01/12 06:15:44;;;;;;;;;;;0.60;95.30;;;;;;5080775;28;20025;-72
2021/01/12 06:18:17;;;;;;;9.45;5.70;;;0.70;95.70;;;;;;5088303;28;19951;-70
2021/01/12 06:20:55;;;;;;;12.20;6.70;;;0.80;95.20;;;;;;5092544;28;20055;-70
2021/01/12 06:23:49;;;;;;;8.30;5.47;;;0.80;95.50;;;;;;5091641;28;20036;-73
2021/01/12 06:26:16;;;;;;;9.63;5.95;;;0.80;95.10;;;;;;5066464;28;20450;-73
2021/01/12 06:28:43;;;;;;;10.07;5.60;;;0.80;94.90;;;;;;5092709;28;20484;-69
2021/01/12 06:31:12;;;;;;;10.48;6.07;;;0.80;94.80;;;;;;5091966;28;20024;-72
2021/01/12 06:33:39;;;;;;;11.10;6.80;;;0.80;94.60;;;;;;5092010;28;20485;-71
2021/01/12 06:36:07;;;;;;;10.50;6.43;;;0.80;94.70;;;;;;5091721;28;20055;-71
2021/01/12 06:38:37;;;;;;;11.70;6.63;;;0.80;94.80;;;;;;5067407;28;20031;-73
2021/01/12 06:41:07;;;;;;;10.85;7.30;;;0.90;94.30;;;;;;5075478;28;20044;-69
2021/01/12 06:43:33;;;;;;;11.77;6.65;;;0.80;94.40;;;;;;5070653;28;20385;-74
2021/01/12 06:46:00;;;;;;;9.52;5.65;;;0.80;94.50;;;;;;5071798;28;20123;-73
2021/01/12 06:48:28;;;;;;;10.65;5.75;;;0.80;94.00;;;;;;5085202;28;20571;-74
2021/01/12 06:50:56;;;;;;;11.05;6.43;;;0.90;94.30;;;;;;5086843;28;20419;-71
2021/01/12 06:53:22;;;;;;;10.85;6.55;;;0.90;93.50;;;;;;5091433;28;20028;-71
2021/01/12 06:55:48;;;;;;;9.80;5.80;;;0.90;93.40;;;;;;5091470;28;20546;-71
2021/01/12 06:58:14;;;;;;;10.75;6.47;;;0.90;93.50;;;;;;5091150;28;20024;-76
2021/01/12 07:00:40;;;;;;;9.05;5.75;;;0.90;93.60;;;;;;5091913;28;20074;-71
2021/01/12 07:03:08;;;;;;;13.10;6.13;;;1.00;93.40;;;;;;5090734;28;20082;-69
2021/01/12 07:05:39;;;;;;;11.25;6.07;;;1.00;93.40;;;;;;5092003;28;20503;-73
2021/01/12 07:08:13;;;;;;;;;;;1.00;93.30;;;;;;5087950;28;20056;-69
2021/01/12 07:10:47;;;;;;;9.32;4.82;;;1.00;93.40;;;;;;5108013;28;19911;-72
2021/01/12 07:13:14;;;;;;;10.95;5.78;;;1.10;93.50;;;;;;5096070;28;20032;-75
2021/01/12 07:15:50;;;;;;;9.63;5.10;;;1.10;93.20;;;;;;5091072;28;20067;-73
2021/01/12 07:18:23;;;;;;;10.13;6.13;;;1.20;93.30;;;;;;5087846;28;20028;-72
2021/01/12 07:20:50;;;;;;;9.23;5.75;;;1.20;93.20;;;;;;5073160;28;20376;-74
2021/01/12 07:23:16;;;;;;;9.60;5.60;;;1.20;93.60;;;;;;5090208;28;20028;-74
2021/01/12 07:25:44;;;;;;;10.48;5.45;;;1.20;94.00;;;;;;5091765;28;20055;-73
2021/01/12 07:28:20;;;;;;;10.85;5.68;;;1.20;94.20;;;;;;5091048;28;20035;-74
2021/01/12 07:30:48;;;;;;;9.85;5.03;;;1.20;94.70;;;;;;5091674;28;20028;-72
2021/01/12 07:33:17;;;;;;;8.05;5.25;;;1.20;94.80;;;;;;5090355;28;20060;-72
2021/01/12 07:35:47;;;;;;;11.35;6.03;;;1.20;95.20;;;;;;5090561;28;20484;-76
2021/01/12 07:38:16;;;;;;;;;;;1.20;95.80;;;;;;5085465;28;20068;-72
2021/01/12 07:40:43;;;;;;;10.90;5.55;;;1.20;95.90;;;;;;5070150;28;19904;-73
2021/01/12 07:43:15;;;;;;;8.20;4.82;;;1.20;95.70;;;;;;5082045;28;20043;-71
2021/01/12 07:45:41;;;;;;;7.68;4.97;;;1.20;96.70;;;;;;5091418;28;20032;-74
2021/01/12 07:48:07;;;;;;;9.93;5.10;;;1.30;96.90;;;;;;5107383;28;20034;-68
2021/01/12 07:50:33;;;;;;;12.40;5.50;;;1.30;96.60;;;;;;5074069;28;20103;-71
2021/01/12 07:52:59;;;;;;;10.30;5.60;;;1.40;96.60;;;;;;5083754;28;20103;-72
2021/01/12 07:55:25;;;;;;;11.07;5.75;;;1.40;96.60;;;;;;5090736;28;20619;-73
2021/01/12 07:57:53;;;;;;;10.30;4.93;;;1.40;96.70;;;;;;5090756;28;20380;-76
2021/01/12 08:00:20;;;;;;;8.00;4.50;;;1.40;96.70;;;;;;5089351;28;20229;-74
2021/01/12 08:02:50;;;;;;;8.48;4.72;;;1.50;96.50;;;;;;5072876;28;20469;-74
2021/01/12 08:05:19;;;;;;;8.80;5.20;;;1.50;96.40;;;;;;5090414;28;20030;-74
2021/01/12 08:07:45;;;;;;;9.70;5.53;;;1.50;96.20;;;;;;5084026;28;20354;-71
2021/01/12 08:10:11;;;;;;;9.00;5.13;;;1.60;96.00;;;;;;5078288;28;20031;-75
2021/01/12 08:12:37;;;;;;;8.57;5.20;;;1.60;95.90;;;;;;5090603;28;20425;-73
2021/01/12 08:15:14;;;;;;;9.25;4.85;;;1.70;95.50;;;;;;5090686;28;20063;-74
2021/01/12 08:17:49;;;;;;;7.68;5.05;;;1.70;95.80;;;;;;5080176;28;20043;-73
2021/01/12 08:20:18;;;;;;;10.38;5.40;;;1.60;95.80;;;;;;5090168;28;20028;-75
2021/01/12 08:22:50;;;;;;;9.07;5.05;;;1.70;96.00;;;;;;5095142;28;20072;-74
2021/01/12 08:25:16;;;;;;;10.18;5.30;;;1.70;96.30;;;;;;5092984;28;20040;-74
2021/01/12 08:27:47;;;;;;;9.32;5.45;;;1.70;96.50;;;;;;5098860;28;20024;-75
2021/01/12 08:30:13;;;;;;;9.65;5.32;;;1.70;96.80;;;;;;5091651;28;20082;-73
2021/01/12 08:32:45;;;;;;;10.23;5.25;;;1.70;97.30;;;;;;5091399;28;20031;-73
2021/01/12 08:35:13;;;;;;;8.48;5.15;;;1.70;97.50;;;;;;5089979;28;20040;-76
2021/01/12 08:37:41;;;;;;;7.45;4.28;;;1.70;97.90;;;;;;5090926;28;20543;-75
2021/01/12 08:40:12;;;;;;;6.72;4.28;;;1.70;98.20;;;;;;5070539;28;20060;-70
2021/01/12 08:42:40;;;;;;;5.82;3.75;;;1.70;98.70;;;;;;5068954;28;20039;-73
2021/01/12 08:45:17;;;;;;;6.28;4.35;;;1.80;98.90;;;;;;5090447;28;20119;-69
2021/01/12 08:47:43;;;;;;;6.60;4.35;;;1.80;99.10;;;;;;5091336;28;20040;-72
2021/01/12 08:50:09;;;;;;;7.13;4.15;;;1.90;98.90;;;;;;5092277;28;20392;-68
2021/01/12 08:52:44;;;;;;;6.38;4.10;;;1.90;99.30;;;;;;5094117;28;20030;-77
2021/01/12 08:55:18;;;;;;;8.40;3.92;;;2.00;99.50;;;;;;5093745;28;20027;-74
2021/01/12 08:57:57;;;;;;;6.25;3.65;;;2.00;99.50;;;;;;5094201;28;20515;-77
2021/01/12 09:00:28;;;;;;;5.57;3.33;;;2.00;99.70;;;;;;5055755;28;20370;-78
2021/01/12 09:02:55;;;;;;;6.13;3.33;;;2.00;99.70;;;;;;5090696;28;20118;-71
2021/01/12 09:05:21;;;;;;;7.10;3.33;;;2.10;99.50;;;;;;5093643;28;20040;-77
2021/01/12 09:07:47;;;;;;;6.18;3.40;;;2.20;99.50;;;;;;5074119;28;20384;-76
2021/01/12 09:10:12;;;;;;;3.63;2.38;;;2.20;99.40;;;;;;5084042;28;20113;-70
2021/01/12 09:12:40;;;;;;;4.90;3.03;;;2.20;99.20;;;;;;5079462;28;20099;-74
2021/01/12 09:15:06;;;;;;;7.00;4.03;;;2.30;99.30;;;;;;5071084;28;20033;-70
2021/01/12 09:17:32;;;;;;;4.45;2.80;;;2.30;99.30;;;;;;5096480;28;20423;-74
2021/01/12 09:19:58;;;;;;;5.75;3.05;;;2.30;99.30;;;;;;5074434;28;20023;-75
2021/01/12 09:22:29;;;;;;;3.67;2.60;;;2.40;99.40;;;;;;5072900;28;20040;-73
2021/01/12 09:24:55;;;;;;;4.25;2.83;;;2.40;99.60;;;;;;5074704;28;20071;-74
2021/01/12 09:27:23;;;;;;;4.20;2.75;;;2.40;99.90;;;;;;5073109;28;20074;-74
2021/01/12 09:29:50;;;;;;;4.13;2.72;;;2.40;99.90;;;;;;5073482;28;20029;-73
2021/01/12 09:32:34;;;;;;;5.63;3.22;;;2.40;99.90;;;;;;5091198;28;20431;-70
2021/01/12 09:35:00;;;;;;;5.18;2.78;;;2.40;99.90;;;;;;5093272;28;20032;-73
2021/01/12 09:37:26;;;;;;;3.35;2.65;;;2.30;99.90;;;;;;5091827;28;20385;-77
2021/01/12 09:39:54;;;;;;;3.92;2.38;;;2.40;99.90;;;;;;5072643;28;20032;-71
2021/01/12 09:42:24;;;;;;;3.22;2.42;;;2.40;99.90;;;;;;5083767;28;20036;-74
2021/01/12 09:44:51;;;;;;;4.60;2.80;;;2.40;99.90;;;;;;5111500;28;20450;-74
2021/01/12 09:47:18;;;;;;;5.20;2.28;;;2.40;99.90;;;;;;5081738;28;20028;-71
2021/01/12 09:49:44;;;;;;;3.85;2.10;;;2.30;99.90;;;;;;5074386;28;20055;-76
2021/01/12 09:52:09;;;;;;;4.78;2.10;;;2.40;99.90;;;;;;5074638;28;20032;-69
2021/01/12 09:54:35;;;;;;;2.40;1.73;;;2.30;99.90;;;;;;5077504;28;20052;-73
2021/01/12 09:57:03;;;;;;;3.25;1.90;;;2.30;99.90;;;;;;5073058;28;20036;-73
2021/01/12 09:59:28;;;;;;;2.00;1.60;;;2.30;99.90;;;;;;5071211;28;20028;-74
2021/01/12 10:01:56;;;;;;;4.13;1.48;;;2.20;99.90;;;;;;5086125;28;20028;-73
2021/01/12 10:04:21;;;;;;;2.63;1.40;;;2.20;99.90;;;;;;5092443;28;20067;-75
2021/01/12 10:06:54;;;;;;;1.63;1.40;;;2.10;99.90;;;;;;5092871;28;20076;-70
2021/01/12 10:09:19;;;;;;;3.28;1.33;;;2.10;99.90;;;;;;5083535;28;20056;-73
2021/01/12 10:11:45;;;;;;;3.45;1.70;;;2.00;99.90;;;;;;5072062;28;20060;-68
2021/01/12 10:14:11;;;;;;;3.08;1.45;;;2.00;99.90;;;;;;5072194;28;20024;-69
2021/01/12 10:16:36;;;;;;;2.95;1.50;;;1.90;99.90;;;;;;5072399;28;20027;-71
2021/01/12 10:19:02;;;;;;;4.28;1.60;;;1.90;99.90;;;;;;5054786;28;20032;-74
2021/01/12 10:21:29;;;;;;;4.80;1.63;;;1.80;99.90;;;;;;5081442;28;20631;-75
2021/01/12 10:23:55;;;;;;;1.98;1.25;;;1.80;99.90;;;;;;5091638;28;20062;-73
2021/01/12 10:26:20;;;;;;;1.70;1.50;;;1.80;99.90;;;;;;5091605;28;20060;-72
2021/01/12 10:28:47;;;;;;;2.50;1.50;;;1.80;99.90;;;;;;5083776;28;20025;-68
2021/01/12 10:31:14;;;;;;;2.85;1.58;;;1.80;99.90;;;;;;5089331;28;20080;-68
2021/01/12 10:33:44;;;;;;;2.67;1.50;;;1.80;99.90;;;;;;5113439;28;20036;-73
2021/01/12 10:36:17;;;;;;;5.15;1.70;;;1.70;99.90;;;;;;5112841;28;20106;-68
2021/01/12 10:38:43;;;;;;;1.73;1.33;;;1.70;99.90;;;;;;5093588;28;20035;-74
2021/01/12 10:41:09;;;;;;;3.00;1.58;;;1.70;99.90;;;;;;5072645;28;20036;-69
2021/01/12 10:43:36;;;;;;;2.38;1.48;;;1.70;99.90;;;;;;5071701;28;20035;-73
2021/01/12 10:46:02;;;;;;;1.65;1.20;;;1.70;99.90;;;;;;5071650;28;20036;-70
2021/01/12 10:48:28;;;;;;;3.58;1.10;;;1.70;99.90;;;;;;5053458;28;20036;-71
2021/01/12 10:50:54;;;;;;;1.80;1.17;;;1.70;99.90;;;;;;5054416;28;20040;-75
2021/01/12 10:53:20;;;;;;;2.10;1.10;;;1.80;99.90;;;;;;5070722;28;20040;-73
2021/01/12 10:55:46;;;;;;;1.30;0.70;;;1.70;99.90;;;;;;5072704;28;20033;-73
2021/01/12 10:58:12;;;;;;;2.05;1.00;;;1.80;99.90;;;;;;5053523;28;20052;-69
2021/01/12 11:00:38;;;;;;;1.10;0.70;;;1.70;99.90;;;;;;5071753;28;20053;-74
2021/01/12 11:03:06;;;;;;;2.13;0.65;;;1.70;99.90;;;;;;5071794;28;20413;-70
2021/01/12 11:05:33;;;;;;;0.50;0.50;;;1.80;99.90;;;;;;5070901;28;20036;-72
2021/01/12 11:08:00;;;;;;;1.35;0.80;;;1.80;99.90;;;;;;5081777;28;21162;-73
2021/01/12 11:10:25;;;;;;;2.65;0.60;;;1.70;99.90;;;;;;5082991;28;20067;-73
2021/01/12 11:12:52;;;;;;;2.10;0.50;;;1.70;99.90;;;;;;5071977;28;20056;-74
2021/01/12 11:15:18;;;;;;;1.25;0.47;;;1.70;99.90;;;;;;5070936;28;20032;-69
2021/01/12 11:17:47;;;;;;;1.85;1.15;;;1.70;99.90;;;;;;5071109;28;20040;-71
2021/01/12 11:20:18;;;;;;;0.82;0.52;;;1.80;99.90;;;;;;5071040;28;20024;-68
2021/01/12 11:22:44;;;;;;;1.25;0.60;;;1.80;99.90;;;;;;5071933;28;20111;-70
2021/01/12 11:25:14;;;;;;;1.85;0.50;;;1.80;99.90;;;;;;5071376;28;20033;-70
2021/01/12 11:27:40;;;;;;;3.90;1.00;;;1.80;99.90;;;;;;5070695;28;20454;-72
2021/01/12 11:30:07;;;;;;;0.60;0.50;;;1.80;99.90;;;;;;5071625;28;20055;-74
2021/01/12 11:32:34;;;;;;;1.52;0.90;;;1.80;99.90;;;;;;5070691;28;20025;-72
2021/01/12 11:35:01;;;;;;;1.05;0.47;;;1.80;99.90;;;;;;5071523;28;20028;-75
2021/01/12 11:37:29;;;;;;;1.45;0.32;;;1.80;99.90;;;;;;5070827;28;20074;-73
2021/01/12 11:39:55;;;;;;;1.42;0.30;;;1.90;99.90;;;;;;5077459;28;20046;-71
2021/01/12 11:42:21;;;;;;;0.63;0.50;;;1.90;99.90;;;;;;5079810;28;20024;-73
2021/01/12 11:44:48;;;;;;;1.30;0.40;;;1.90;99.90;;;;;;5071505;28;20086;-73
2021/01/12 11:47:15;;;;;;;0.80;0.40;;;1.90;99.90;;;;;;5052224;28;20034;-70
2021/01/12 11:49:40;;;;;;;1.17;0.65;;;1.90;99.90;;;;;;5071793;28;20354;-74
2021/01/12 11:52:08;;;;;;;2.80;0.70;;;1.90;99.90;;;;;;5071471;28;20112;-74
2021/01/12 11:54:34;;;;;;;1.00;0.40;;;1.90;99.90;;;;;;5070441;28;20040;-73
2021/01/12 11:57:00;;;;;;;0.68;0.40;;;1.90;99.90;;;;;;5071466;28;20032;-73
2021/01/12 11:59:27;;;;;;;2.08;0.55;;;1.90;99.90;;;;;;5052530;28;20055;-75
2021/01/12 12:01:54;;;;;;;2.28;0.50;;;1.90;99.90;;;;;;5070884;28;20028;-74
2021/01/12 12:04:22;;;;;;;0.63;0.50;;;1.90;99.90;;;;;;5070502;28;20123;-74
2021/01/12 12:07:01;;;;;;;1.13;0.60;;;1.90;99.90;;;;;;5071034;28;20541;-73
2021/01/12 12:09:28;;;;;;;1.42;0.80;;;1.90;99.90;;;;;;5078701;28;20036;-74
2021/01/12 12:11:54;;;;;;;1.27;0.50;;;1.90;99.90;;;;;;5090857;28;20028;-75
2021/01/12 12:14:20;;;;;;;0.80;0.30;;;1.90;99.90;;;;;;5090627;28;20079;-71
2021/01/12 12:16:47;;;;;;;0.63;0.38;;;1.90;99.90;;;;;;5091188;28;20457;-71
2021/01/12 12:19:15;;;;;;;1.85;0.50;;;1.90;99.90;;;;;;5090844;28;20060;-68
2021/01/12 12:21:59;;;;;;;0.73;0.52;;;2.00;99.90;;;;;;5090113;28;20107;-71
2021/01/12 12:24:28;;;;;;;1.40;0.30;;;2.00;99.90;;;;;;5094223;28;20039;-71
2021/01/12 12:26:56;;;;;;;0.40;0.30;;;2.00;99.90;;;;;;5076854;28;20036;-70
2021/01/12 12:29:22;;;;;;;0.40;0.40;;;2.00;99.90;;;;;;5094504;28;20457;-72
2021/01/12 12:31:53;;;;;;;0.88;0.47;;;2.00;99.90;;;;;;5094807;28;20024;-71
2021/01/12 12:34:19;;;;;;;0.70;0.40;;;2.00;99.90;;;;;;5094591;28;20113;-72
2021/01/12 12:36:44;;;;;;;1.85;0.60;;;2.00;99.90;;;;;;5075230;28;20070;-75
2021/01/12 12:39:10;;;;;;;3.33;0.73;;;2.00;99.90;;;;;;5074046;28;20454;-72
2021/01/12 12:41:36;;;;;;;3.17;0.75;;;1.90;99.90;;;;;;5073563;28;20031;-73
2021/01/12 12:44:01;;;;;;;0.40;0.35;;;1.90;99.90;;;;;;5074571;28;20113;-74
2021/01/12 12:46:28;;;;;;;1.27;0.70;;;2.00;99.90;;;;;;5075771;28;20384;-75
2021/01/12 12:48:57;;;;;;;0.80;0.70;;;1.90;99.90;;;;;;5093588;28;20349;-74
2021/01/12 12:51:23;;;;;;;0.70;0.40;;;2.00;99.90;;;;;;5093928;28;20028;-72